createdAt,value
2022-08-03T00:02:15.026Z,1.38
2022-08-03T00:04:41.751Z,1.10
2022-08-03T00:07:08.324Z,1.05
2022-08-03T00:09:35.665Z,1.05
2022-08-03T00:12:02.745Z,1.15
2022-08-03T00:14:29.274Z,1.00
2022-08-03T00:16:55.878Z,1.20
2022-08-03T00:19:22.402Z,1.10
2022-08-03T00:21:48.938Z,0.90
2022-08-03T00:24:15.574Z,1.15
2022-08-03T00:26:42.170Z,0.90
2022-08-03T00:29:08.816Z,1.15
2022-08-03T00:31:45.763Z,1.10
2022-08-03T00:34:26.145Z,1.10
2022-08-03T00:37:05.372Z,1.15
2022-08-03T00:39:31.882Z,1.23
2022-08-03T00:42:02.627Z,1.23
2022-08-03T00:44:29.237Z,1.10
2022-08-03T00:46:55.743Z,1.20
2022-08-03T00:49:22.777Z,1.08
2022-08-03T00:51:49.342Z,0.90
2022-08-03T00:54:17.868Z,1.10
2022-08-03T00:57:00.050Z,0.90
2022-08-03T00:59:27.480Z,1.10
2022-08-03T01:01:54.274Z,1.02
2022-08-03T01:04:20.806Z,1.10
2022-08-03T01:07:18.881Z,1.15
2022-08-03T01:09:48.745Z,1.00
2022-08-03T01:12:25.258Z,1.10
2022-08-03T01:15:00.107Z,1.17
2022-08-03T01:17:39.250Z,0.95
2022-08-03T01:20:13.720Z,0.85
2022-08-03T01:23:03.413Z,1.10
2022-08-03T01:26:07.431Z,1.00
2022-08-03T01:28:49.186Z,1.00
2022-08-03T01:31:20.374Z,0.82
2022-08-03T01:33:53.035Z,0.95
2022-08-03T01:36:24.649Z,1.20
2022-08-03T01:38:55.271Z,1.08
2022-08-03T01:41:26.848Z,1.08
2022-08-03T01:44:27.357Z,1.10
2022-08-03T01:46:47.442Z,0.90
2022-08-03T01:49:15.054Z,0.80
2022-08-03T01:51:57.818Z,1.00
2022-08-03T01:54:31.798Z,1.05
2022-08-03T01:56:59.671Z,1.00
2022-08-03T01:59:29.141Z,1.25
2022-08-03T02:02:29.184Z,1.00
2022-08-03T02:04:47.010Z,1.30
2022-08-03T02:07:15.294Z,1.10
2022-08-03T02:09:45.188Z,1.23
2022-08-03T02:12:13.836Z,1.00
2022-08-03T02:14:43.321Z,1.05
2022-08-03T02:17:10.686Z,1.20
2022-08-03T02:19:38.836Z,1.00
2022-08-03T02:22:08.507Z,0.80
2022-08-03T02:24:35.086Z,1.10
2022-08-03T02:27:04.222Z,1.08
2022-08-03T02:29:39.522Z,1.13
2022-08-03T02:32:10.539Z,1.00
2022-08-03T02:34:38.248Z,1.15
2022-08-03T02:37:07.026Z,1.13
2022-08-03T02:39:35.496Z,1.02
2022-08-03T02:42:05.562Z,1.00
2022-08-03T02:44:34.952Z,1.05
2022-08-03T02:47:05.264Z,1.30
2022-08-03T02:49:40.996Z,0.95
2022-08-03T02:52:19.908Z,1.00
2022-08-03T02:54:48.489Z,1.00
2022-08-03T02:57:16.234Z,1.00
2022-08-03T02:59:43.856Z,0.90
2022-08-03T03:02:12.189Z,1.00
2022-08-03T03:04:39.147Z,1.00
2022-08-03T03:07:26.805Z,0.95
2022-08-03T03:09:55.585Z,1.00
2022-08-03T03:12:22.741Z,1.00
2022-08-03T03:14:49.346Z,1.20
2022-08-03T03:17:17.769Z,0.98
2022-08-03T03:19:45.665Z,1.05
2022-08-03T03:22:13.157Z,1.10
2022-08-03T03:24:41.583Z,1.10
2022-08-03T03:27:08.785Z,1.13
2022-08-03T03:29:39.298Z,1.20
2022-08-03T03:32:12.442Z,0.98
2022-08-03T03:34:39.064Z,1.00
2022-08-03T03:37:06.258Z,0.90
2022-08-03T03:39:32.849Z,0.98
2022-08-03T03:42:00.446Z,0.98
2022-08-03T03:44:29.017Z,1.25
2022-08-03T03:46:57.881Z,1.13
2022-08-03T03:49:24.848Z,0.90
2022-08-03T03:51:55.504Z,1.00
2022-08-03T03:54:22.438Z,1.05
2022-08-03T03:56:52.346Z,0.90
2022-08-03T03:59:19.026Z,1.00
2022-08-03T04:01:45.904Z,1.23
2022-08-03T04:04:30.951Z,0.98
2022-08-03T04:07:16.152Z,0.90
2022-08-03T04:10:07.919Z,0.90
2022-08-03T04:12:49.953Z,0.90
2022-08-03T04:15:20.756Z,0.90
2022-08-03T04:17:48.976Z,1.27
2022-08-03T04:20:17.078Z,1.00
2022-08-03T04:22:43.688Z,0.80
2022-08-03T04:25:12.048Z,1.13
2022-08-03T04:27:41.602Z,1.00
2022-08-03T04:30:09.204Z,1.20
2022-08-03T04:32:37.557Z,1.05
2022-08-03T04:35:04.926Z,0.88
2022-08-03T04:37:37.422Z,1.10
2022-08-03T04:40:07.581Z,1.10
2022-08-03T04:42:35.213Z,1.20
2022-08-03T04:45:03.661Z,1.05
2022-08-03T04:47:33.046Z,1.30
2022-08-03T04:50:02.136Z,1.23
2022-08-03T04:52:28.732Z,1.05
2022-08-03T04:54:55.256Z,1.30
2022-08-03T04:57:22.857Z,1.20
2022-08-03T05:00:02.020Z,1.48
2022-08-03T05:02:29.917Z,1.20
2022-08-03T05:04:56.497Z,1.10
2022-08-03T05:07:25.175Z,1.30
2022-08-03T05:09:57.510Z,1.08
2022-08-03T05:12:32.294Z,1.40
2022-08-03T05:14:59.677Z,1.60
2022-08-03T05:17:26.244Z,1.17
2022-08-03T05:19:52.874Z,1.35
2022-08-03T05:22:20.128Z,1.70
2022-08-03T05:24:46.679Z,1.60
2022-08-03T05:27:19.140Z,1.65
2022-08-03T05:29:47.286Z,1.55
2022-08-03T05:32:14.027Z,1.55
2022-08-03T05:34:40.609Z,1.77
2022-08-03T05:37:10.328Z,1.55
2022-08-03T05:39:36.869Z,1.90
2022-08-03T05:42:03.647Z,1.80
2022-08-03T05:44:31.654Z,2.00
2022-08-03T05:46:58.605Z,1.70
2022-08-03T05:49:25.310Z,1.88
2022-08-03T05:52:00.164Z,1.70
2022-08-03T05:54:56.107Z,2.03
2022-08-03T05:57:23.805Z,2.13
2022-08-03T05:59:53.812Z,1.63
2022-08-03T06:02:25.359Z,1.88
2022-08-03T06:04:51.886Z,1.92
2022-08-03T06:07:18.669Z,1.90
2022-08-03T06:10:37.277Z,1.88
2022-08-03T06:12:32.054Z,1.70
2022-08-03T06:14:58.613Z,1.60
2022-08-03T06:17:25.162Z,1.98
2022-08-03T06:19:53.944Z,2.10
2022-08-03T06:22:20.691Z,1.90
2022-08-03T06:24:48.195Z,1.83
2022-08-03T06:27:20.563Z,1.85
2022-08-03T06:30:04.136Z,2.33
2022-08-03T06:32:30.658Z,1.95
2022-08-03T06:34:57.210Z,1.88
2022-08-03T06:37:24.638Z,1.77
2022-08-03T06:39:51.208Z,1.90
2022-08-03T06:42:18.085Z,2.00
2022-08-03T06:44:47.685Z,2.00
2022-08-03T06:47:15.028Z,1.75
2022-08-03T06:49:41.805Z,2.30
2022-08-03T06:52:08.376Z,2.03
2022-08-03T06:54:36.246Z,1.83
2022-08-03T06:57:03.626Z,1.95
2022-08-03T07:00:09.251Z,1.70
2022-08-03T07:02:19.324Z,2.00
2022-08-03T07:04:47.797Z,2.20
2022-08-03T07:07:14.358Z,1.90
2022-08-03T07:09:41.801Z,1.88
2022-08-03T07:12:08.587Z,2.35
2022-08-03T07:14:35.155Z,2.20
2022-08-03T07:17:01.688Z,1.85
2022-08-03T07:19:31.341Z,1.98
2022-08-03T07:22:02.244Z,1.98
2022-08-03T07:24:30.804Z,2.13
2022-08-03T07:26:57.602Z,1.80
2022-08-03T07:29:24.128Z,1.77
2022-08-03T07:31:50.659Z,2.00
2022-08-03T07:34:17.177Z,1.95
2022-08-03T07:36:43.787Z,2.03
2022-08-03T07:39:16.492Z,1.90
2022-08-03T07:41:45.196Z,2.10
2022-08-03T07:44:11.772Z,2.13
2022-08-03T07:46:38.495Z,2.00
2022-08-03T07:49:05.475Z,2.08
2022-08-03T07:51:32.051Z,1.73
2022-08-03T07:53:59.137Z,1.80
2022-08-03T07:56:25.912Z,1.77
2022-08-03T07:58:53.261Z,1.73
2022-08-03T08:01:20.025Z,1.98
2022-08-03T08:03:52.747Z,2.30
2022-08-03T08:06:20.702Z,1.92
2022-08-03T08:08:47.361Z,2.00
2022-08-03T08:11:13.921Z,2.30
2022-08-03T08:13:40.666Z,2.25
2022-08-03T08:16:07.331Z,2.08
2022-08-03T08:18:34.507Z,2.03
2022-08-03T08:21:03.293Z,2.15
2022-08-03T08:23:42.032Z,2.25
2022-08-03T08:26:11.374Z,2.00
2022-08-03T08:28:37.971Z,2.10
2022-08-03T08:31:05.028Z,2.58
2022-08-03T08:36:18.276Z,1.95
2022-08-03T08:38:45.250Z,2.20
2022-08-03T08:41:13.529Z,2.30
2022-08-03T08:43:41.069Z,2.38
2022-08-03T08:46:11.844Z,2.28
2022-08-03T08:48:42.343Z,2.58
2022-08-03T08:51:12.592Z,2.75
2022-08-03T08:53:43.945Z,3.03
2022-08-03T08:56:15.487Z,2.60
2022-08-03T08:58:49.119Z,2.83
2022-08-03T09:01:18.856Z,2.70
2022-08-03T09:03:45.992Z,2.67
2022-08-03T09:06:12.841Z,2.40
2022-08-03T09:08:39.424Z,2.72
2022-08-03T09:11:07.517Z,3.20
2022-08-03T09:13:35.810Z,2.63
2022-08-03T09:16:16.719Z,2.55
2022-08-03T09:18:46.667Z,2.50
2022-08-03T09:21:34.263Z,2.60
2022-08-03T09:24:05.173Z,2.25
2022-08-03T09:26:37.265Z,2.50
2022-08-03T09:29:13.976Z,2.42
2022-08-03T09:31:46.310Z,2.58
2022-08-03T09:34:15.093Z,2.20
2022-08-03T09:36:50.229Z,2.80
2022-08-03T09:39:19.177Z,2.67
2022-08-03T09:42:05.145Z,2.25
2022-08-03T09:44:42.276Z,2.20
2022-08-03T09:47:14.186Z,2.80
2022-08-03T09:49:42.182Z,2.55
2022-08-03T09:52:32.933Z,2.40
2022-08-03T09:56:30.522Z,2.40
2022-08-03T09:58:11.723Z,2.67
2022-08-03T10:00:57.079Z,2.45
2022-08-03T10:03:26.648Z,2.53
2022-08-03T10:05:59.321Z,2.30
2022-08-03T10:08:26.294Z,2.63
2022-08-03T10:10:57.962Z,2.40
2022-08-03T10:13:25.187Z,2.45
2022-08-03T10:16:23.486Z,2.40
2022-08-03T10:18:38.343Z,2.20
2022-08-03T10:21:10.618Z,2.42
2022-08-03T10:23:38.831Z,2.47
2022-08-03T10:26:07.300Z,2.30
2022-08-03T10:28:44.978Z,2.85
2022-08-03T10:31:14.314Z,2.08
2022-08-03T10:33:51.859Z,2.50
2022-08-03T10:36:23.998Z,2.40
2022-08-03T10:38:56.548Z,2.40
2022-08-03T10:41:30.983Z,2.33
2022-08-03T10:44:09.889Z,2.10
2022-08-03T10:46:44.307Z,2.38
2022-08-03T10:49:14.894Z,2.58
2022-08-03T10:51:44.728Z,2.33
2022-08-03T10:55:03.336Z,2.67
2022-08-03T10:57:48.741Z,2.22
2022-08-03T11:00:21.532Z,2.50
2022-08-03T11:03:03.419Z,2.45
2022-08-03T11:05:37.748Z,2.53
2022-08-03T11:08:22.583Z,2.60
2022-08-03T11:10:50.753Z,2.30
2022-08-03T11:13:19.861Z,2.10
2022-08-03T11:15:48.522Z,2.17
2022-08-03T11:18:15.867Z,2.60
2022-08-03T11:20:52.785Z,2.63
2022-08-03T11:24:04.779Z,2.40
2022-08-03T11:26:33.414Z,2.78
2022-08-03T11:29:28.751Z,2.85
2022-08-03T11:31:55.392Z,2.95
2022-08-03T11:34:24.549Z,2.83
2022-08-03T11:37:26.158Z,2.75
2022-08-03T11:39:55.457Z,2.45
2022-08-03T11:42:24.927Z,2.80
2022-08-03T11:44:59.470Z,3.03
2022-08-03T11:47:29.954Z,2.80
2022-08-03T11:50:00.351Z,2.60
2022-08-03T11:52:28.881Z,3.00
2022-08-03T11:54:56.753Z,3.15
2022-08-03T11:58:57.762Z,2.85
2022-08-03T12:00:27.260Z,2.60
2022-08-03T12:02:55.552Z,3.13
2022-08-03T12:05:32.534Z,2.75
2022-08-03T12:08:03.256Z,2.60
2022-08-03T12:10:33.405Z,3.00
2022-08-03T12:13:02.099Z,2.40
2022-08-03T12:15:30.579Z,2.65
2022-08-03T12:17:58.232Z,2.63
2022-08-03T12:20:34.669Z,2.70
2022-08-03T12:23:06.041Z,2.70
2022-08-03T12:25:39.455Z,2.38
2022-08-03T12:28:30.432Z,2.55
2022-08-03T12:31:09.534Z,2.22
2022-08-03T12:33:56.275Z,2.67
2022-08-03T12:36:23.010Z,2.92
2022-08-03T12:39:04.948Z,3.25
2022-08-03T12:41:36.813Z,2.50
2022-08-03T12:44:05.359Z,2.60
2022-08-03T12:46:35.089Z,2.60
2022-08-03T12:49:07.392Z,2.72
2022-08-03T12:51:37.084Z,2.55
2022-08-03T12:54:04.730Z,2.50
2022-08-03T12:56:31.248Z,2.65
2022-08-03T12:58:57.836Z,2.60
2022-08-03T13:01:24.575Z,2.80
2022-08-03T13:03:53.671Z,2.50
2022-08-03T13:06:25.362Z,2.72
2022-08-03T13:09:06.177Z,3.40
2022-08-03T13:11:47.631Z,2.72
2022-08-03T13:14:20.657Z,2.92
2022-08-03T13:16:48.534Z,2.80
2022-08-03T13:19:16.067Z,3.00
2022-08-03T13:22:01.760Z,2.50
2022-08-03T13:24:30.357Z,2.53
2022-08-03T13:26:57.087Z,2.40
2022-08-03T13:29:23.608Z,2.70
2022-08-03T13:31:50.572Z,2.38
2022-08-03T13:34:23.033Z,2.55
2022-08-03T13:37:08.377Z,2.40
2022-08-03T13:39:57.645Z,2.55
2022-08-03T13:42:22.463Z,2.60
2022-08-03T13:44:49.425Z,2.88
2022-08-03T13:47:16.392Z,2.70
2022-08-03T13:49:54.366Z,2.50
2022-08-03T13:52:38.957Z,2.65
2022-08-03T13:55:10.141Z,2.60
2022-08-03T13:58:05.337Z,2.70
2022-08-03T14:00:29.370Z,2.70
2022-08-03T14:03:03.878Z,2.50
2022-08-03T14:05:32.884Z,2.60
2022-08-03T14:08:05.717Z,2.58
2022-08-03T14:10:38.438Z,2.38
2022-08-03T14:13:05.304Z,2.40
2022-08-03T14:15:32.103Z,2.70
2022-08-03T14:18:03.965Z,2.47
2022-08-03T14:20:36.933Z,2.42
2022-08-03T14:23:04.244Z,2.30
2022-08-03T14:25:44.399Z,2.65
2022-08-03T14:28:18.365Z,2.55
2022-08-03T14:30:45.285Z,2.75
2022-08-03T14:33:11.812Z,2.05
2022-08-03T14:35:38.416Z,2.38
2022-08-03T14:38:04.951Z,2.40
2022-08-03T14:40:31.529Z,2.45
2022-08-03T14:42:58.068Z,2.15
2022-08-03T14:45:24.746Z,2.50
2022-08-03T14:50:29.228Z,2.15
2022-08-03T14:50:43.146Z,2.40
2022-08-03T14:53:12.302Z,2.22
2022-08-03T14:55:50.846Z,2.05
2022-08-03T14:58:21.028Z,2.05
2022-08-03T15:00:49.683Z,2.00
2022-08-03T15:03:16.857Z,2.10
2022-08-03T15:05:44.245Z,2.30
2022-08-03T15:08:10.769Z,2.13
2022-08-03T15:10:40.436Z,2.00
2022-08-03T15:13:11.424Z,2.30
2022-08-03T15:15:38.041Z,2.05
2022-08-03T15:18:04.802Z,2.00
2022-08-03T15:20:43.241Z,2.13
2022-08-03T15:23:11.616Z,1.92
2022-08-03T15:26:03.907Z,2.00
2022-08-03T15:28:24.831Z,2.03
2022-08-03T15:30:54.577Z,1.80
2022-08-03T15:33:21.162Z,1.92
2022-08-03T15:35:48.019Z,2.20
2022-08-03T15:38:14.734Z,2.33
2022-08-03T15:40:41.622Z,2.00
2022-08-03T15:43:08.441Z,1.83
2022-08-03T15:45:36.299Z,2.17
2022-08-03T15:48:04.190Z,2.10
2022-08-03T15:50:30.706Z,2.00
2022-08-03T15:52:57.276Z,2.10
2022-08-03T15:55:23.867Z,2.00
2022-08-03T15:59:03.987Z,2.20
2022-08-03T16:00:37.050Z,2.22
2022-08-03T16:03:03.700Z,2.30
2022-08-03T16:05:30.283Z,2.03
2022-08-03T16:08:02.743Z,2.10
2022-08-03T16:10:30.814Z,2.45
2022-08-03T16:12:58.948Z,2.10
2022-08-03T16:15:25.772Z,2.03
2022-08-03T16:17:52.580Z,2.35
2022-08-03T16:20:31.324Z,1.92
2022-08-03T16:23:08.517Z,2.25
2022-08-03T16:25:39.128Z,2.30
2022-08-03T16:28:12.773Z,2.25
2022-08-03T16:30:44.615Z,2.30
2022-08-03T16:33:17.004Z,1.88
2022-08-03T16:35:44.811Z,2.28
2022-08-03T16:38:15.210Z,2.17
2022-08-03T16:40:45.996Z,2.13
2022-08-03T16:43:18.803Z,2.15
2022-08-03T16:45:46.862Z,2.03
2022-08-03T16:48:14.631Z,2.25
2022-08-03T16:50:43.101Z,2.20
2022-08-03T16:53:15.603Z,2.10
2022-08-03T16:55:53.625Z,2.22
2022-08-03T16:58:34.767Z,2.00
2022-08-03T17:01:24.667Z,2.30
2022-08-03T17:04:03.034Z,2.00
2022-08-03T17:06:36.927Z,1.90
2022-08-03T17:09:19.086Z,2.10
2022-08-03T17:11:49.339Z,2.13
2022-08-03T17:14:17.356Z,2.10
2022-08-03T17:16:52.772Z,1.83
2022-08-03T17:19:23.000Z,2.10
2022-08-03T17:22:07.741Z,2.35
2022-08-03T17:24:41.520Z,2.35
2022-08-03T17:28:41.743Z,2.20
2022-08-03T17:30:13.658Z,2.25
2022-08-03T17:32:56.576Z,2.38
2022-08-03T17:35:35.577Z,2.00
2022-08-03T17:38:06.586Z,1.80
2022-08-03T17:40:34.903Z,2.13
2022-08-03T17:44:12.735Z,2.20
2022-08-03T17:45:54.772Z,2.00
2022-08-03T17:48:25.133Z,2.10
2022-08-03T17:50:58.630Z,2.10
2022-08-03T17:53:29.364Z,1.98
2022-08-03T17:56:44.313Z,2.20
2022-08-03T17:59:50.644Z,1.70
2022-08-03T18:02:39.225Z,2.05
2022-08-03T18:05:17.491Z,1.92
2022-08-03T18:07:59.389Z,1.75
2022-08-03T18:10:34.453Z,1.80
2022-08-03T18:13:10.566Z,1.90
2022-08-03T18:15:49.251Z,2.00
2022-08-03T18:18:29.345Z,1.52
2022-08-03T18:21:06.730Z,1.80
2022-08-03T18:23:37.958Z,1.85
2022-08-03T18:26:10.802Z,1.83
2022-08-03T18:28:39.512Z,1.70
2022-08-03T18:31:09.887Z,1.80
2022-08-03T18:34:16.367Z,2.00
2022-08-03T18:39:14.539Z,1.90
2022-08-03T18:41:46.468Z,1.70
2022-08-03T18:44:45.559Z,1.90
2022-08-03T18:47:16.317Z,1.65
2022-08-03T18:50:19.233Z,1.70
2022-08-03T18:52:56.098Z,1.88
2022-08-03T18:55:35.676Z,1.90
2022-08-03T18:58:35.680Z,1.70
2022-08-03T19:01:59.952Z,1.85
2022-08-03T19:04:35.593Z,1.85
2022-08-03T19:07:07.903Z,1.83
2022-08-03T19:09:47.205Z,2.10
2022-08-03T19:12:26.497Z,1.80
2022-08-03T19:15:03.343Z,1.95
2022-08-03T19:17:31.509Z,1.80
2022-08-03T19:19:58.569Z,1.90
2022-08-03T19:22:28.113Z,1.60
2022-08-03T19:24:58.400Z,1.70
2022-08-03T19:27:27.088Z,1.95
2022-08-03T19:29:59.617Z,1.60
2022-08-03T19:32:48.322Z,1.80
2022-08-03T19:35:19.035Z,1.80
2022-08-03T19:37:55.175Z,1.75
2022-08-03T19:40:23.908Z,1.70
2022-08-03T19:42:58.752Z,1.75
2022-08-03T19:46:04.452Z,2.00
2022-08-03T19:48:29.014Z,1.58
2022-08-03T19:50:57.719Z,1.73
2022-08-03T19:53:34.646Z,1.83
2022-08-03T19:56:05.153Z,1.60
2022-08-03T19:58:32.865Z,1.85
2022-08-03T20:01:00.149Z,1.85
2022-08-03T20:03:48.121Z,1.90
2022-08-03T20:06:21.097Z,1.90
2022-08-03T20:08:51.432Z,1.75
2022-08-03T20:11:18.351Z,1.92
2022-08-03T20:13:46.389Z,1.73
2022-08-03T20:16:15.069Z,1.70
2022-08-03T20:18:42.634Z,1.60
2022-08-03T20:21:15.350Z,1.60
2022-08-03T20:26:31.121Z,1.80
2022-08-03T20:29:09.267Z,2.00
2022-08-03T20:31:37.548Z,1.70
2022-08-03T20:34:05.407Z,1.70
2022-08-03T20:36:31.972Z,1.85
2022-08-03T20:38:59.158Z,1.63
2022-08-03T20:41:26.545Z,1.80
2022-08-03T20:43:53.161Z,1.77
2022-08-03T20:46:31.015Z,2.00
2022-08-03T20:49:05.801Z,1.98
2022-08-03T20:51:52.502Z,1.60
2022-08-03T20:54:23.159Z,1.70
2022-08-03T20:56:57.798Z,1.45
2022-08-03T20:59:28.832Z,1.95
2022-08-03T21:01:57.054Z,1.77
2022-08-03T21:04:24.064Z,1.88
2022-08-03T21:06:58.667Z,1.75
2022-08-03T21:09:33.590Z,1.50
2022-08-03T21:12:11.494Z,1.95
2022-08-03T21:12:58.650Z,1.63
2022-08-03T21:13:13.846Z,1.67
2022-08-03T21:14:46.892Z,1.83
2022-08-03T21:17:25.261Z,1.88
2022-08-03T21:20:03.179Z,1.90
2022-08-03T21:22:32.412Z,2.20
2022-08-03T21:25:04.027Z,1.77
2022-08-03T21:27:32.211Z,1.67
2022-08-03T21:30:02.902Z,1.90
2022-08-03T21:32:33.155Z,1.90
2022-08-03T21:35:00.516Z,1.70
2022-08-03T21:37:28.381Z,1.95
2022-08-03T21:39:55.628Z,1.95
2022-08-03T21:42:25.467Z,1.90
2022-08-03T21:44:52.926Z,1.70
2022-08-03T21:47:21.823Z,1.80
2022-08-03T21:50:08.221Z,2.08
2022-08-03T21:52:41.485Z,1.90
2022-08-03T21:55:08.622Z,1.60
2022-08-03T21:57:51.592Z,1.65
2022-08-03T22:00:20.172Z,1.60
2022-08-03T22:02:56.041Z,1.70
2022-08-03T22:05:42.459Z,1.63
2022-08-03T22:08:12.807Z,1.90
2022-08-03T22:10:40.354Z,1.85
2022-08-03T22:13:06.977Z,1.80
2022-08-03T22:15:33.579Z,2.10
2022-08-03T22:18:03.561Z,1.92
2022-08-03T22:20:30.359Z,1.95
2022-08-03T22:23:01.284Z,1.77
2022-08-03T22:25:31.279Z,1.80
2022-08-03T22:28:04.747Z,1.70
2022-08-03T22:30:33.025Z,1.70
2022-08-03T22:33:00.375Z,2.08
2022-08-03T22:35:27.968Z,1.80
2022-08-03T22:37:55.541Z,2.00
2022-08-03T22:40:22.401Z,1.80
2022-08-03T22:42:52.426Z,1.63
2022-08-03T22:46:07.301Z,1.83
2022-08-03T22:48:07.668Z,1.90
2022-08-03T22:50:34.979Z,1.83
2022-08-03T22:53:01.530Z,2.00
2022-08-03T22:55:28.183Z,1.58
2022-08-03T22:57:55.761Z,1.67
2022-08-03T23:00:23.613Z,1.92
2022-08-03T23:02:51.696Z,1.90
2022-08-03T23:06:02.556Z,1.80
2022-08-03T23:08:14.398Z,1.70
2022-08-03T23:10:46.704Z,1.90
2022-08-03T23:13:16.667Z,1.70
2022-08-03T23:15:49.614Z,2.05
2022-08-03T23:18:17.761Z,1.80
2022-08-03T23:20:44.747Z,1.92
2022-08-03T23:23:12.303Z,1.77
2022-08-03T23:25:41.489Z,2.00
2022-08-03T23:28:10.423Z,1.85
2022-08-03T23:30:38.143Z,1.90
2022-08-03T23:33:06.305Z,2.13
2022-08-03T23:36:20.090Z,1.80
2022-08-03T23:38:38.736Z,1.80
2022-08-03T23:41:08.077Z,1.80
2022-08-03T23:43:50.871Z,1.70
2022-08-03T23:46:22.277Z,1.95
2022-08-03T23:48:49.489Z,1.70
2022-08-03T23:51:53.162Z,1.83
2022-08-03T23:54:37.084Z,1.70
2022-08-03T23:57:25.498Z,1.95
